Time;durP1;ratioP1;P1;durP2;ratioP2;P2;SDS_P1;SDS_P2;PMS_P1;PMS_P2;Temp;Humidity;BMP_temperature;BMP_pressure;BME280_temperature;BME280_humidity;BME280_pressure;Samples;Min_cycle;Max_cycle;Signal;HPM_P1;HPM_P2
2023/11/14 00:01:07;;;;;;;34.83;18.48;;;;;;;5.16;100.00;100232.84;6121951;23;20006;-82
2023/11/14 00:03:32;;;;;;;37.40;20.08;;;;;;;5.32;100.00;100252.22;6120462;23;20013;-83
2023/11/14 00:05:58;;;;;;;35.65;19.00;;;;;;;5.24;100.00;100232.78;6120545;23;20006;-82
2023/11/14 00:08:23;;;;;;;31.83;16.23;;;;;;;5.83;98.88;100260.28;6121941;23;20006;-82
2023/11/14 00:10:51;;;;;;;44.38;26.67;;;;;;;6.01;96.50;100260.75;6119848;23;20014;-83
2023/11/14 00:13:17;;;;;;;23.83;13.88;;;;;;;5.94;95.72;100249.22;6120233;23;20038;-82
2023/11/14 00:15:43;;;;;;;27.10;13.48;;;;;;;6.05;94.44;100240.03;6119893;23;20559;-82
2023/11/14 00:18:09;;;;;;;23.20;13.55;;;;;;;5.91;94.70;100254.09;6120338;23;20021;-82
2023/11/14 00:20:35;;;;;;;25.55;14.38;;;;;;;5.98;95.12;100244.41;6120435;23;20415;-82
2023/11/14 00:23:01;;;;;;;22.60;12.60;;;;;;;5.84;96.71;100251.31;6119745;23;20056;-82
2023/11/14 00:25:27;;;;;;;23.27;12.43;;;;;;;5.91;95.85;100241.66;6120440;23;20006;-82
2023/11/14 00:27:53;;;;;;;23.98;14.35;;;;;;;5.77;95.93;100216.03;6120243;23;20085;-82
2023/11/14 00:30:18;;;;;;;338.85;148.88;;;;;;;5.56;98.90;100251.16;6120528;23;20656;-83
2023/11/14 00:32:44;;;;;;;69.68;34.33;;;;;;;5.63;97.76;100228.25;6120304;23;20006;-82
2023/11/14 00:35:10;;;;;;;154.25;65.35;;;;;;;5.36;100.00;100243.75;6121689;23;20010;-84
2023/11/14 00:37:36;;;;;;;56.63;29.67;;;;;;;5.16;100.00;100242.59;6121720;23;20013;-83
2023/11/14 00:40:03;;;;;;;28.98;15.70;;;;;;;5.21;100.00;100222.56;6121803;23;20017;-83
2023/11/14 00:42:29;;;;;;;19.23;10.23;;;;;;;5.64;97.19;100225.44;6123220;23;20013;-82
2023/11/14 00:44:55;;;;;;;16.10;8.68;;;;;;;5.79;96.12;100232.53;6121643;23;20077;-83
2023/11/14 00:47:21;;;;;;;17.85;8.90;;;;;;;5.85;95.29;100242.41;6123225;23;20005;-83
2023/11/14 00:49:46;;;;;;;17.38;10.10;;;;;;;6.15;92.64;100239.72;6138513;23;20064;-83
2023/11/14 00:52:12;;;;;;;17.63;10.05;;;;;;;6.11;92.79;100246.41;6126481;23;20395;-83
2023/11/14 00:54:38;;;;;;;20.65;12.82;;;;;;;5.66;94.78;100211.19;6126493;23;20016;-83
2023/11/14 00:57:04;;;;;;;21.30;13.23;;;;;;;5.33;98.57;100208.91;6126627;23;20005;-83
2023/11/14 00:59:29;;;;;;;18.42;10.32;;;;;;;5.00;100.00;100219.78;6152554;23;20175;-83
2023/11/14 01:01:58;;;;;;;16.05;10.43;;;;;;;5.15;98.78;100212.72;6126461;23;20367;-83
2023/11/14 01:04:23;;;;;;;;;;;;;;;4.82;98.25;100247.34;6127114;23;20012;-82
2023/11/14 01:06:49;;;;;;;22.95;10.88;;;;;;;4.86;96.56;100231.13;6126492;23;19901;-83
2023/11/14 01:09:14;;;;;;;19.95;12.02;;;;;;;4.37;98.24;100227.84;6126872;23;20648;-82
2023/11/14 01:11:40;;;;;;;20.98;11.95;;;;;;;4.25;96.98;100231.88;6126219;23;20009;-83
2023/11/14 01:14:05;;;;;;;19.98;11.23;;;;;;;4.23;98.89;100257.63;6126583;23;20005;-83
2023/11/14 01:16:31;;;;;;;19.83;11.57;;;;;;;4.48;98.63;100245.09;6126648;23;20013;-83
2023/11/14 01:18:56;;;;;;;20.65;11.52;;;;;;;4.08;98.11;100260.16;6126733;23;20012;-82
2023/11/14 01:21:22;;;;;;;17.83;11.20;;;;;;;4.06;98.43;100240.22;6126521;23;20701;-83
2023/11/14 01:23:47;;;;;;;18.33;10.57;;;;;;;3.76;100.00;100232.91;6126039;23;20001;-82
2023/11/14 01:26:13;;;;;;;20.05;11.20;;;;;;;3.63;100.00;100230.78;6152732;23;20727;-85
2023/11/14 01:28:38;;;;;;;19.42;12.40;;;;;;;3.51;100.00;100253.25;6126737;23;20009;-83
2023/11/14 01:31:04;;;;;;;21.75;10.95;;;;;;;3.49;100.00;100242.03;6126350;23;20079;-83
2023/11/14 01:33:29;;;;;;;19.67;11.52;;;;;;;3.47;100.00;100251.94;6126209;23;20103;-83
2023/11/14 01:35:54;;;;;;;19.65;11.32;;;;;;;3.71;100.00;100242.31;6152121;23;20036;-82
2023/11/14 01:38:20;;;;;;;18.00;10.27;;;;;;;3.45;100.00;100237.28;6152008;23;20080;-83
2023/11/14 01:40:50;;;;;;;20.02;11.55;;;;;;;3.61;100.00;100239.88;6126219;23;20029;-82
2023/11/14 01:43:16;;;;;;;18.65;10.70;;;;;;;3.94;99.03;100240.59;6126356;23;20985;-83
2023/11/14 01:45:41;;;;;;;17.40;10.88;;;;;;;4.16;96.55;100248.75;6125556;23;20010;-83
2023/11/14 01:48:07;;;;;;;17.35;10.75;;;;;;;3.90;98.80;100231.34;6126213;23;20028;-83
2023/11/14 01:50:33;;;;;;;19.55;10.50;;;;;;;3.75;99.48;100238.34;6125720;23;20018;-83
2023/11/14 01:52:59;;;;;;;16.50;9.60;;;;;;;3.35;100.00;100203.19;6126147;23;20042;-83
2023/11/14 01:55:25;;;;;;;20.33;10.63;;;;;;;3.79;98.24;100229.09;6126399;23;20053;-84
2023/11/14 01:57:53;;;;;;;17.38;9.60;;;;;;;3.57;98.64;100210.38;6126391;23;20624;-83
2023/11/14 02:00:19;;;;;;;15.27;10.25;;;;;;;3.77;98.75;100228.47;6126280;23;20036;-83
2023/11/14 02:02:46;;;;;;;16.88;10.25;;;;;;;4.06;97.14;100225.19;6126314;23;20013;-84
2023/11/14 02:05:12;;;;;;;19.67;9.68;;;;;;;4.14;96.82;100226.97;6125907;23;20325;-83
2023/11/14 02:07:37;;;;;;;18.30;9.90;;;;;;;3.50;99.40;100213.88;6125745;23;20010;-82
2023/11/14 02:10:04;;;;;;;17.90;9.88;;;;;;;3.00;100.00;100187.63;6125914;23;20010;-82
2023/11/14 02:12:31;;;;;;;16.00;9.32;;;;;;;3.48;99.96;100205.31;6125917;23;20491;-82
2023/11/14 02:14:56;;;;;;;16.60;9.73;;;;;;;3.75;98.85;100220.69;6152179;23;20558;-82
2023/11/14 02:17:22;;;;;;;15.57;8.50;;;;;;;4.02;97.85;100215.97;6152662;23;20009;-83
2023/11/14 02:19:47;;;;;;;12.50;8.23;;;;;;;3.78;99.34;100216.91;6126184;23;20017;-83
2023/11/14 02:22:13;;;;;;;12.95;7.82;;;;;;;3.62;99.67;100186.97;6151639;23;20009;-85
2023/11/14 02:24:45;;;;;;;13.73;7.75;;;;;;;3.18;100.00;100200.59;6125551;23;20037;-83
2023/11/14 02:27:10;;;;;;;12.23;7.95;;;;;;;2.95;100.00;100216.25;6125882;23;20009;-83
2023/11/14 02:29:38;;;;;;;12.48;6.95;;;;;;;2.84;100.00;100221.03;6125881;23;20069;-83
2023/11/14 02:32:04;;;;;;;10.60;7.25;;;;;;;3.01;100.00;100220.06;6126288;23;20409;-83
2023/11/14 02:34:29;;;;;;;12.05;7.47;;;;;;;3.52;100.00;100199.53;6125061;23;20009;-83
2023/11/14 02:36:55;;;;;;;9.75;6.57;;;;;;;3.80;99.83;100199.09;6125582;23;20169;-83
2023/11/14 02:39:20;;;;;;;12.60;7.15;;;;;;;3.89;100.00;100213.91;6125203;23;20132;-82
2023/11/14 02:41:46;;;;;;;12.15;7.38;;;;;;;4.02;99.69;100214.19;6151762;23;20009;-83
2023/11/14 02:44:13;;;;;;;11.00;7.28;;;;;;;4.05;99.54;100222.75;6125292;23;20005;-82
2023/11/14 02:46:38;;;;;;;11.18;7.65;;;;;;;3.98;99.58;100223.44;6151681;23;20005;-83
2023/11/14 02:49:36;;;;;;;12.48;8.23;;;;;;;3.76;100.00;100229.44;6151371;23;20024;-83
2023/11/14 02:52:03;;;;;;;10.70;7.10;;;;;;;3.25;100.00;100206.03;6112708;23;20088;-82
2023/11/14 02:54:28;;;;;;;11.88;7.80;;;;;;;3.70;100.00;100215.13;6125624;23;20084;-83
2023/11/14 02:56:53;;;;;;;9.43;6.43;;;;;;;3.90;100.00;100226.09;6125213;23;20020;-83
2023/11/14 02:59:19;;;;;;;10.73;6.85;;;;;;;3.97;100.00;100220.97;6125277;23;20399;-81
2023/11/14 03:01:44;;;;;;;12.38;7.82;;;;;;;4.34;99.21;100214.97;6151615;23;20387;-81
2023/11/14 03:04:10;;;;;;;10.88;7.38;;;;;;;4.40;98.36;100206.38;6125545;23;20088;-83
2023/11/14 03:06:39;;;;;;;12.00;7.88;;;;;;;4.54;97.63;100222.47;6151450;23;20040;-82
2023/11/14 03:09:05;;;;;;;12.57;7.57;;;;;;;4.42;97.51;100212.28;6125754;23;20402;-83
2023/11/14 03:11:31;;;;;;;13.88;7.38;;;;;;;4.35;97.69;100211.34;6125303;23;20499;-85
2023/11/14 03:13:56;;;;;;;12.40;8.20;;;;;;;4.05;100.00;100225.38;6151774;23;20012;-82
2023/11/14 03:16:22;;;;;;;13.43;8.45;;;;;;;3.54;100.00;100204.63;6125094;23;20014;-85
2023/11/14 03:18:47;;;;;;;17.27;9.55;;;;;;;3.57;100.00;100207.72;6151684;23;20072;-83
2023/11/14 03:21:15;;;;;;;16.10;8.95;;;;;;;3.75;100.00;100217.25;6125389;23;20064;-83
2023/11/14 03:23:42;;;;;;;17.67;10.40;;;;;;;4.18;100.00;100200.06;6125485;23;20017;-82
2023/11/14 03:26:08;;;;;;;20.25;14.07;;;;;;;4.40;99.78;100224.03;6124811;23;20329;-83
2023/11/14 03:28:33;;;;;;;32.55;19.75;;;;;;;4.34;98.42;100207.06;6125130;23;20144;-82
2023/11/14 03:30:59;;;;;;;35.00;21.42;;;;;;;4.08;98.75;100193.34;6125377;23;20064;-83
2023/11/14 03:33:24;;;;;;;34.92;20.02;;;;;;;4.28;99.40;100218.31;6124879;23;20017;-82
2023/11/14 03:35:50;;;;;;;25.75;14.20;;;;;;;4.30;99.20;100220.78;6125527;23;20100;-82
2023/11/14 03:38:16;;;;;;;26.17;13.00;;;;;;;4.34;98.39;100238.75;6125171;23;20009;-82
2023/11/14 03:40:42;;;;;;;20.15;11.82;;;;;;;4.30;97.35;100221.59;6125356;23;20005;-82
2023/11/14 03:43:08;;;;;;;20.58;11.60;;;;;;;4.21;98.15;100244.59;6125475;23;20080;-83
2023/11/14 03:45:34;;;;;;;19.35;10.30;;;;;;;4.19;97.33;100238.66;6125060;23;20013;-82
2023/11/14 03:48:00;;;;;;;20.25;11.38;;;;;;;4.22;97.79;100230.38;6125078;23;20084;-82
2023/11/14 03:50:25;;;;;;;18.60;11.30;;;;;;;4.27;96.03;100216.69;6124689;23;20829;-82
2023/11/14 03:52:50;;;;;;;20.98;12.07;;;;;;;4.29;94.91;100230.53;6124977;23;20016;-84
2023/11/14 03:55:16;;;;;;;20.88;11.77;;;;;;;4.40;94.05;100248.59;6151082;23;20087;-82
2023/11/14 03:57:41;;;;;;;17.83;10.30;;;;;;;4.17;94.59;100253.84;6125243;23;20524;-83
2023/11/14 04:00:09;;;;;;;16.95;10.10;;;;;;;4.23;95.63;100270.84;6124699;23;20033;-83
2023/11/14 04:02:38;;;;;;;16.83;9.80;;;;;;;3.98;96.60;100270.94;6125079;23;20010;-83
2023/11/14 04:05:07;;;;;;;15.45;9.77;;;;;;;3.94;98.68;100282.81;6124905;23;20527;-84
2023/11/14 04:07:32;;;;;;;16.58;11.32;;;;;;;3.83;99.18;100291.09;6151196;23;20009;-83
2023/11/14 04:09:58;;;;;;;15.55;8.98;;;;;;;3.70;99.55;100262.59;6152231;23;20005;-83
2023/11/14 04:12:24;;;;;;;14.88;9.00;;;;;;;3.69;99.80;100255.66;6126582;23;20033;-82
2023/11/14 04:14:52;;;;;;;14.25;9.07;;;;;;;3.14;100.00;100257.25;6152433;23;20002;-83
2023/11/14 04:17:17;;;;;;;15.93;10.00;;;;;;;2.62;100.00;100241.75;6152624;23;20001;-82
2023/11/14 04:19:44;;;;;;;16.30;8.85;;;;;;;2.80;100.00;100257.44;6126811;23;20247;-82
2023/11/14 04:22:11;;;;;;;13.23;8.73;;;;;;;3.33;100.00;100268.44;6126950;23;20548;-84
2023/11/14 04:24:36;;;;;;;14.95;9.23;;;;;;;2.78;100.00;100252.31;6127003;23;20010;-82
2023/11/14 04:27:02;;;;;;;15.18;9.95;;;;;;;2.49;100.00;100273.81;6126601;23;20439;-82
2023/11/14 04:29:28;;;;;;;13.95;8.52;;;;;;;2.35;100.00;100266.53;6127152;23;20016;-83
2023/11/14 04:31:53;;;;;;;14.80;8.68;;;;;;;2.44;100.00;100265.59;6126566;23;20014;-84
2023/11/14 04:34:19;;;;;;;14.40;8.07;;;;;;;1.88;100.00;100265.25;6153219;23;20008;-83
2023/11/14 04:36:44;;;;;;;11.95;7.55;;;;;;;2.03;100.00;100275.97;6126199;23;20439;-83
2023/11/14 04:39:10;;;;;;;12.70;6.95;;;;;;;1.71;100.00;100256.41;6126524;23;20020;-82
2023/11/14 04:41:36;;;;;;;12.50;6.75;;;;;;;2.20;100.00;100258.44;6126663;23;20009;-83
2023/11/14 04:44:02;;;;;;;15.00;8.07;;;;;;;2.65;97.32;100251.97;6126913;23;20014;-83
2023/11/14 04:46:27;;;;;;;13.23;8.23;;;;;;;2.69;99.41;100273.53;6126641;23;20010;-82
2023/11/14 04:48:53;;;;;;;12.25;7.32;;;;;;;2.62;99.64;100247.03;6126581;23;20137;-83
2023/11/14 04:51:18;;;;;;;12.60;7.80;;;;;;;2.13;100.00;100267.97;6126667;23;20017;-83
2023/11/14 04:53:44;;;;;;;12.07;7.70;;;;;;;1.70;100.00;100238.19;6126825;23;20009;-82
2023/11/14 04:56:14;;;;;;;11.65;7.45;;;;;;;1.40;100.00;100261.34;6126685;23;20005;-83
2023/11/14 04:58:39;;;;;;;11.70;7.72;;;;;;;1.57;100.00;100247.34;6152539;23;20343;-82
2023/11/14 05:01:05;;;;;;;12.73;8.40;;;;;;;1.93;100.00;100255.06;6126912;23;20018;-82
2023/11/14 05:03:30;;;;;;;16.65;9.30;;;;;;;2.57;99.75;100275.66;6126591;23;20040;-82
2023/11/14 05:05:58;;;;;;;15.80;8.95;;;;;;;1.92;100.00;100213.13;6126659;23;20013;-82
2023/11/14 05:08:23;;;;;;;17.87;11.00;;;;;;;2.51;100.00;100257.88;6126717;23;20001;-82
2023/11/14 05:10:49;;;;;;;18.65;8.80;;;;;;;2.20;100.00;100248.72;6126197;23;20010;-83
2023/11/14 05:13:15;;;;;;;15.10;8.88;;;;;;;2.73;100.00;100254.59;6126461;23;20009;-84
2023/11/14 05:15:41;;;;;;;19.23;11.48;;;;;;;2.05;100.00;100249.53;6126536;23;20013;-80
2023/11/14 05:18:08;;;;;;;35.08;21.48;;;;;;;2.25;100.00;100269.31;6126498;23;20013;-82
2023/11/14 05:20:33;;;;;;;32.90;20.08;;;;;;;1.58;100.00;100233.19;6125770;23;20010;-83
2023/11/14 05:22:59;;;;;;;44.72;26.25;;;;;;;1.94;100.00;100285.66;6126478;23;20017;-82
2023/11/14 05:25:24;;;;;;;31.33;19.05;;;;;;;2.06;100.00;100275.66;6126304;23;20009;-82
2023/11/14 05:27:50;;;;;;;19.67;12.57;;;;;;;1.80;100.00;100255.50;6151990;23;20005;-82
2023/11/14 05:30:16;;;;;;;20.02;13.35;;;;;;;2.41;100.00;100290.44;6126290;23;20005;-83
2023/11/14 05:32:41;;;;;;;15.20;9.40;;;;;;;2.37;100.00;100291.72;6126425;23;20010;-84
2023/11/14 05:35:09;;;;;;;14.30;9.52;;;;;;;2.86;100.00;100284.91;6126086;23;20541;-83
2023/11/14 05:37:34;;;;;;;14.95;9.65;;;;;;;2.95;100.00;100279.47;6151834;23;20077;-82
2023/11/14 05:40:00;;;;;;;23.00;10.23;;;;;;;3.04;100.00;100261.84;6126054;23;20018;-83
2023/11/14 05:42:25;;;;;;;16.48;9.00;;;;;;;3.04;100.00;100279.50;6151938;23;20002;-82
2023/11/14 05:44:51;;;;;;;17.10;9.80;;;;;;;2.49;100.00;100265.09;6151852;23;20002;-82
2023/11/14 05:47:18;;;;;;;23.20;11.40;;;;;;;2.76;100.00;100270.09;6125856;23;20010;-83
2023/11/14 05:49:44;;;;;;;21.52;11.25;;;;;;;2.84;100.00;100286.88;6125568;23;20458;-83
2023/11/14 05:52:10;;;;;;;20.48;11.70;;;;;;;3.37;100.00;100291.69;6126314;23;20010;-83
2023/11/14 05:54:36;;;;;;;32.28;17.25;;;;;;;3.24;100.00;100295.78;6125950;23;20344;-82
2023/11/14 05:57:02;;;;;;;31.73;20.83;;;;;;;3.63;100.00;100304.63;6126269;23;20436;-80
2023/11/14 05:59:27;;;;;;;46.40;27.85;;;;;;;3.36;100.00;100286.56;6125905;23;20452;-82
2023/11/14 06:01:53;;;;;;;42.88;25.08;;;;;;;3.20;100.00;100277.66;6126183;23;20009;-82
2023/11/14 06:04:21;;;;;;;35.63;22.48;;;;;;;3.20;100.00;100272.41;6125701;23;20544;-81
2023/11/14 06:06:47;;;;;;;40.67;24.05;;;;;;;3.19;100.00;100280.50;6125772;23;20068;-82
2023/11/14 06:09:12;;;;;;;23.92;15.35;;;;;;;2.97;100.00;100308.31;6126183;23;20020;-83
2023/11/14 06:11:38;;;;;;;29.20;16.00;;;;;;;2.90;100.00;100283.59;6125576;23;20009;-83
2023/11/14 06:14:04;;;;;;;28.58;17.58;;;;;;;3.48;100.00;100294.97;6125713;23;20060;-83
2023/11/14 06:16:30;;;;;;;37.88;22.80;;;;;;;3.85;100.00;100304.13;6151322;23;20002;-82
2023/11/14 06:18:56;;;;;;;41.92;24.77;;;;;;;4.01;100.00;100275.84;6125670;23;20059;-82
2023/11/14 06:21:21;;;;;;;53.97;27.88;;;;;;;4.28;100.00;100281.69;6125450;23;20104;-83
2023/11/14 06:23:46;;;;;;;42.65;24.65;;;;;;;4.45;100.00;100284.22;6151935;23;20132;-85
2023/11/14 06:26:12;;;;;;;37.38;23.13;;;;;;;4.67;100.00;100312.50;6125757;23;20002;-83
2023/11/14 06:28:38;;;;;;;26.77;14.27;;;;;;;4.89;100.00;100300.31;6151742;23;20459;-83
2023/11/14 06:31:03;;;;;;;22.52;13.60;;;;;;;5.17;100.00;100316.47;6125509;23;20002;-83
2023/11/14 06:33:32;;;;;;;17.20;11.20;;;;;;;4.96;100.00;100311.81;6125707;23;20084;-84
2023/11/14 06:35:58;;;;;;;17.00;11.27;;;;;;;5.17;100.00;100311.19;6151479;23;20009;-83
2023/11/14 06:38:24;;;;;;;15.73;10.38;;;;;;;5.37;100.00;100326.53;6151399;23;20067;-83
2023/11/14 06:40:49;;;;;;;18.33;10.80;;;;;;;5.47;100.00;100324.47;6125419;23;20092;-83
2023/11/14 06:43:15;;;;;;;17.10;9.63;;;;;;;5.19;100.00;100292.47;6151807;23;20058;-82
2023/11/14 06:45:40;;;;;;;16.90;9.07;;;;;;;5.46;100.00;100322.84;6151794;23;20009;-82
2023/11/14 06:48:06;;;;;;;15.48;8.90;;;;;;;5.49;100.00;100332.22;6124873;23;20865;-83
2023/11/14 06:50:31;;;;;;;14.88;9.18;;;;;;;5.80;100.00;100337.38;6120289;23;20027;-82
2023/11/14 06:52:56;;;;;;;15.10;9.27;;;;;;;5.77;100.00;100316.59;6120153;23;20017;-84
2023/11/14 06:55:22;;;;;;;13.75;8.93;;;;;;;6.26;100.00;100334.59;6120290;23;20022;-83
2023/11/14 06:57:47;;;;;;;19.80;13.52;;;;;;;6.02;100.00;100314.53;6119735;23;20006;-82
2023/11/14 07:00:15;;;;;;;16.27;10.50;;;;;;;6.27;100.00;100335.41;6121575;23;20002;-82
2023/11/14 07:02:42;;;;;;;22.05;9.70;;;;;;;6.38;100.00;100297.88;6120441;23;20467;-80
2023/11/14 07:05:09;;;;;;;13.40;9.10;;;;;;;6.77;100.00;100339.91;6121101;23;20070;-81
2023/11/14 07:07:35;;;;;;;14.18;8.15;;;;;;;6.81;100.00;100327.09;6121226;23;20001;-81
2023/11/14 07:10:01;;;;;;;12.52;8.70;;;;;;;6.47;100.00;100267.59;6119182;23;20042;-83
2023/11/14 07:12:26;;;;;;;15.13;9.48;;;;;;;7.04;100.00;100335.69;6120793;23;20163;-81
2023/11/14 07:14:52;;;;;;;18.08;8.98;;;;;;;7.05;100.00;100317.97;6121945;23;20071;-81
2023/11/14 07:17:17;;;;;;;15.38;9.35;;;;;;;7.46;100.00;100341.19;6120373;23;20010;-82
2023/11/14 07:19:43;;;;;;;13.73;9.68;;;;;;;7.69;98.78;100337.47;6121880;23;20002;-82
2023/11/14 07:22:08;;;;;;;15.02;9.60;;;;;;;7.83;98.54;100325.94;6120374;23;20036;-82
2023/11/14 07:24:34;;;;;;;14.15;9.93;;;;;;;7.90;97.74;100313.50;6120325;23;20002;-83
2023/11/14 07:26:59;;;;;;;13.85;9.07;;;;;;;7.82;98.75;100308.34;6119355;23;20044;-81
2023/11/14 07:29:24;;;;;;;17.90;11.68;;;;;;;7.85;99.25;100308.78;6119644;23;20010;-82
2023/11/14 07:31:52;;;;;;;18.15;10.13;;;;;;;8.10;99.15;100295.03;6121228;23;20002;-82
2023/11/14 07:34:17;;;;;;;12.65;9.30;;;;;;;8.38;95.34;100273.69;6121647;23;20037;-82
2023/11/14 07:36:43;;;;;;;13.93;8.98;;;;;;;8.39;96.65;100288.63;6120788;23;20364;-82
2023/11/14 07:39:08;;;;;;;13.00;8.30;;;;;;;8.01;100.00;100297.03;6119956;23;20016;-80
2023/11/14 07:41:33;;;;;;;14.52;8.57;;;;;;;7.84;100.00;100258.53;6120705;23;20084;-82
2023/11/14 07:43:59;;;;;;;13.90;8.95;;;;;;;7.58;100.00;100248.56;6119977;23;20010;-82
2023/11/14 07:46:24;;;;;;;15.68;9.70;;;;;;;7.88;100.00;100291.66;6121493;23;20002;-80
2023/11/14 07:48:50;;;;;;;16.23;10.05;;;;;;;8.01;100.00;100291.72;6125247;23;20419;-81
2023/11/14 07:51:16;;;;;;;14.05;9.50;;;;;;;8.22;100.00;100287.34;6152142;23;20005;-83
2023/11/14 07:53:46;;;;;;;17.00;10.70;;;;;;;8.44;100.00;100286.22;6125527;23;20005;-82
2023/11/14 07:56:12;;;;;;;17.60;10.88;;;;;;;8.76;98.10;100288.34;6126115;23;20036;-81
2023/11/14 07:58:38;;;;;;;14.05;8.80;;;;;;;9.01;98.09;100301.88;6125750;23;20016;-82
2023/11/14 08:01:03;;;;;;;14.90;8.82;;;;;;;9.21;95.58;100291.25;6126236;23;20092;-82
2023/11/14 08:03:29;;;;;;;13.80;9.10;;;;;;;9.55;93.38;100308.88;6126812;23;20006;-83
2023/11/14 08:05:55;;;;;;;16.60;9.13;;;;;;;9.49;96.22;100272.44;6126151;23;20025;-82
2023/11/14 08:08:21;;;;;;;12.18;8.80;;;;;;;9.71;92.87;100312.16;6126259;23;20016;-82
2023/11/14 08:10:46;;;;;;;14.32;8.90;;;;;;;9.79;96.11;100320.72;6126033;23;20355;-82
2023/11/14 08:13:11;;;;;;;15.45;10.27;;;;;;;9.54;96.37;100277.97;6126418;23;20396;-84
2023/11/14 08:15:37;;;;;;;15.02;10.15;;;;;;;9.76;94.76;100293.69;6125623;23;20093;-81
2023/11/14 08:18:04;;;;;;;13.77;9.95;;;;;;;10.36;91.85;100314.84;6125745;23;20078;-82
2023/11/14 08:20:30;;;;;;;13.43;9.60;;;;;;;10.11;91.95;100274.75;6152001;23;20033;-82
2023/11/14 08:22:55;;;;;;;17.75;10.68;;;;;;;10.31;92.02;100291.50;6125407;23;20060;-81
2023/11/14 08:25:21;;;;;;;16.38;9.60;;;;;;;9.76;93.04;100269.72;6125745;23;20013;-82
2023/11/14 08:27:48;;;;;;;14.35;10.07;;;;;;;10.29;92.72;100266.88;6125754;23;20088;-82
2023/11/14 08:30:13;;;;;;;17.33;10.40;;;;;;;10.39;89.87;100274.47;6151238;23;20084;-82
2023/11/14 08:32:42;;;;;;;19.92;10.75;;;;;;;10.43;90.01;100273.81;6125591;23;20009;-83
2023/11/14 08:35:09;;;;;;;14.90;10.68;;;;;;;11.00;88.42;100283.75;6151690;23;20431;-82
2023/11/14 08:37:35;;;;;;;17.88;10.55;;;;;;;11.07;83.69;100287.16;6151536;23;20080;-83
2023/11/14 08:40:01;;;;;;;16.83;10.27;;;;;;;11.14;84.53;100285.28;6125597;23;20037;-83
2023/11/14 08:42:27;;;;;;;16.25;11.07;;;;;;;11.48;84.00;100274.31;6125236;23;20013;-82
2023/11/14 08:44:52;;;;;;;18.38;11.13;;;;;;;11.57;81.80;100259.66;6125081;23;20033;-81
2023/11/14 08:47:19;;;;;;;16.08;9.52;;;;;;;11.82;81.59;100275.63;6125307;23;20060;-82
2023/11/14 08:49:44;;;;;;;14.98;10.02;;;;;;;12.20;80.64;100285.31;6119028;23;20018;-82
2023/11/14 08:52:09;;;;;;;17.70;9.00;;;;;;;12.15;77.07;100269.13;6119732;23;20085;-83
2023/11/14 08:54:37;;;;;;;14.13;9.07;;;;;;;12.18;75.13;100258.00;6119799;23;20014;-83
2023/11/14 08:57:03;;;;;;;14.90;9.65;;;;;;;12.48;74.49;100262.53;6119897;23;20012;-82
2023/11/14 08:59:30;;;;;;;14.15;9.48;;;;;;;12.70;76.49;100260.19;6121223;23;20431;-82
2023/11/14 09:01:56;;;;;;;13.57;9.20;;;;;;;12.83;74.51;100266.16;6120055;23;20006;-82
2023/11/14 09:04:22;;;;;;;15.10;9.95;;;;;;;12.84;72.93;100254.41;6119987;23;20010;-81
2023/11/14 09:06:47;;;;;;;14.80;9.68;;;;;;;13.28;72.89;100270.22;6122119;23;20012;-81
2023/11/14 09:09:12;;;;;;;15.48;9.07;;;;;;;13.33;69.68;100264.19;6121571;23;20090;-83
2023/11/14 09:11:39;;;;;;;13.73;8.70;;;;;;;13.57;71.10;100263.13;6121464;23;20030;-81
2023/11/14 09:14:05;;;;;;;11.90;8.45;;;;;;;13.36;69.81;100263.69;6121442;23;20026;-82
2023/11/14 09:16:31;;;;;;;14.95;8.90;;;;;;;13.54;70.29;100255.53;6120263;23;20499;-81
2023/11/14 09:18:59;;;;;;;12.85;8.25;;;;;;;13.35;68.99;100248.69;6119459;23;20045;-81
2023/11/14 09:21:25;;;;;;;14.20;8.23;;;;;;;13.75;68.65;100250.63;6121112;23;20019;-82
2023/11/14 09:23:50;;;;;;;14.73;9.07;;;;;;;14.12;68.87;100240.44;6120828;23;20010;-82
2023/11/14 09:26:16;;;;;;;15.05;8.52;;;;;;;13.74;68.30;100238.28;6120954;23;20006;-82
2023/11/14 09:28:42;;;;;;;11.57;7.72;;;;;;;13.92;66.92;100242.69;6119819;23;20014;-81
2023/11/14 09:31:08;;;;;;;12.35;7.57;;;;;;;13.91;67.80;100241.88;6118934;23;20006;-83
2023/11/14 09:33:34;;;;;;;12.23;7.72;;;;;;;14.22;67.41;100243.31;6119450;23;20013;-82
2023/11/14 09:36:00;;;;;;;13.73;7.70;;;;;;;14.25;65.56;100215.19;6119386;23;20014;-81
2023/11/14 09:38:25;;;;;;;12.15;7.72;;;;;;;13.95;69.03;100216.22;6120455;23;20359;-81
2023/11/14 09:40:51;;;;;;;11.52;7.72;;;;;;;14.13;65.43;100201.81;6120776;23;20013;-81
2023/11/14 09:43:23;;;;;;;11.98;6.97;;;;;;;15.03;62.35;100218.19;6119145;23;20025;-81
2023/11/14 09:45:50;;;;;;;10.32;7.22;;;;;;;14.65;63.25;100217.03;6119202;23;20014;-83
2023/11/14 09:48:16;;;;;;;13.98;6.85;;;;;;;14.53;64.09;100181.38;6120644;23;20009;-82
2023/11/14 09:50:43;;;;;;;9.88;6.93;;;;;;;14.93;60.74;100165.13;6118859;23;20040;-82
2023/11/14 09:53:09;;;;;;;11.85;6.60;;;;;;;15.20;60.27;100173.31;6119234;23;20096;-81
2023/11/14 09:55:36;;;;;;;11.55;6.85;;;;;;;14.82;61.69;100131.13;6119226;23;20028;-82
2023/11/14 09:58:02;;;;;;;14.95;6.10;;;;;;;15.26;59.70;100133.88;6119246;23;20005;-83
2023/11/14 10:00:29;;;;;;;11.77;6.47;;;;;;;15.48;59.82;100133.91;6120423;23;20388;-82
2023/11/14 10:02:56;;;;;;;10.27;6.00;;;;;;;15.36;61.78;100144.78;6120830;23;20452;-81
2023/11/14 10:05:22;;;;;;;11.60;6.60;;;;;;;15.90;55.55;100144.13;6119283;23;20121;-82
2023/11/14 10:07:49;;;;;;;9.00;5.97;;;;;;;16.21;54.92;100169.47;6120458;23;20441;-82
2023/11/14 10:10:14;;;;;;;10.60;6.57;;;;;;;16.29;53.33;100144.00;6120675;23;20085;-82
2023/11/14 10:12:40;;;;;;;10.52;6.13;;;;;;;16.23;55.01;100145.81;6120833;23;20033;-82
2023/11/14 10:15:07;;;;;;;12.82;6.22;;;;;;;16.46;56.59;100158.13;6119091;23;20016;-83
2023/11/14 10:17:42;;;;;;;9.27;5.68;;;;;;;16.56;52.96;100145.84;6118757;23;20017;-82
2023/11/14 10:20:09;;;;;;;8.43;5.53;;;;;;;17.22;50.37;100162.53;6118939;23;20499;-82
2023/11/14 10:22:34;;;;;;;9.13;5.50;;;;;;;17.36;50.38;100125.09;6120245;23;20439;-82
2023/11/14 10:25:01;;;;;;;8.27;4.93;;;;;;;17.58;49.12;100143.81;6120782;23;20013;-82
2023/11/14 10:27:28;;;;;;;8.05;4.88;;;;;;;17.82;48.09;100127.19;6118866;23;20388;-82
2023/11/14 10:29:54;;;;;;;9.07;4.63;;;;;;;17.73;48.76;100101.78;6120345;23;20005;-82
2023/11/14 10:32:21;;;;;;;8.27;4.30;;;;;;;17.56;48.80;100096.63;6118319;23;20250;-82
2023/11/14 10:34:47;;;;;;;6.75;4.18;;;;;;;17.83;46.67;100128.84;6119142;23;20041;-82
2023/11/14 10:37:12;;;;;;;7.03;3.35;;;;;;;17.58;46.70;100111.47;6120469;23;20010;-81
2023/11/14 10:39:52;;;;;;;6.72;4.10;;;;;;;17.77;47.46;100119.06;6120374;23;20013;-83
2023/11/14 10:42:17;;;;;;;10.57;4.40;;;;;;;17.52;46.95;100090.94;6120028;23;20013;-82
2023/11/14 10:45:05;;;;;;;6.90;4.00;;;;;;;18.11;47.92;100091.66;6118874;23;20552;-82
2023/11/14 10:47:40;;;;;;;;;;;;;;;18.47;45.36;100111.41;6121504;23;20034;-82
2023/11/14 10:50:25;;;;;;;8.93;5.95;;;;;;;18.16;45.04;100073.56;6118308;23;19917;-82
2023/11/14 10:52:52;;;;;;;10.88;4.72;;;;;;;18.39;44.58;100074.94;6120324;23;20010;-82
2023/11/14 10:55:19;;;;;;;10.20;6.15;;;;;;;18.20;45.06;100071.94;6118446;23;20014;-83
2023/11/14 10:57:49;;;;;;;9.93;5.10;;;;;;;18.29;45.76;100074.94;6118871;23;20511;-81
2023/11/14 11:00:14;;;;;;;9.15;4.97;;;;;;;19.02;42.87;100071.06;6120179;23;20038;-82
2023/11/14 11:02:41;;;;;;;11.95;5.85;;;;;;;17.89;44.19;100070.31;6120054;23;20326;-81
2023/11/14 11:05:09;;;;;;;7.80;4.30;;;;;;;17.98;44.73;100036.31;6118674;23;20050;-81
2023/11/14 11:07:37;;;;;;;7.45;4.53;;;;;;;19.03;41.88;100064.59;6120318;23;20018;-81
2023/11/14 11:10:06;;;;;;;12.52;5.50;;;;;;;19.49;43.29;100031.94;6119091;23;20022;-82
2023/11/14 11:12:34;;;;;;;9.77;4.65;;;;;;;19.67;40.21;100062.97;6118743;23;20013;-82